createdAt,value
2023-01-05T00:01:32.346Z,99.70
2023-01-05T00:04:00.314Z,99.90
2023-01-05T00:06:28.212Z,99.90
2023-01-05T00:08:57.503Z,99.90
2023-01-05T00:11:44.104Z,99.90
2023-01-05T00:14:31.755Z,99.90
2023-01-05T00:17:17.263Z,99.90
2023-01-05T00:20:02.807Z,99.90
2023-01-05T00:22:34.387Z,99.90
2023-01-05T00:25:11.653Z,99.90
2023-01-05T00:27:41.117Z,99.90
2023-01-05T00:30:10.274Z,99.90
2023-01-05T00:32:38.403Z,99.90
2023-01-05T00:35:06.658Z,99.90
2023-01-05T00:37:37.954Z,99.90
2023-01-05T00:40:09.383Z,99.90
2023-01-05T00:42:37.250Z,99.90
2023-01-05T00:45:07.176Z,99.90
2023-01-05T00:47:35.073Z,99.90
2023-01-05T00:50:03.107Z,99.90
2023-01-05T00:52:30.933Z,99.90
2023-01-05T00:54:58.917Z,99.90
2023-01-05T00:57:28.152Z,99.90
2023-01-05T00:59:57.039Z,99.90
2023-01-05T01:02:25.064Z,99.90
2023-01-05T01:04:53.037Z,99.90
2023-01-05T01:07:20.866Z,99.90
2023-01-05T01:09:48.709Z,99.90
2023-01-05T01:12:16.814Z,99.90
2023-01-05T01:14:48.171Z,99.90
2023-01-05T01:17:16.822Z,99.90
2023-01-05T01:19:46.509Z,99.90
2023-01-05T01:22:15.003Z,99.90
2023-01-05T01:24:42.841Z,99.90
2023-01-05T01:27:10.887Z,99.90
2023-01-05T01:29:39.816Z,99.90
2023-01-05T01:32:09.191Z,99.90
2023-01-05T01:34:37.089Z,99.90
2023-01-05T01:37:05.170Z,99.90
2023-01-05T01:39:38.822Z,99.90
2023-01-05T01:42:14.658Z,99.90
2023-01-05T01:44:56.152Z,99.90
2023-01-05T01:47:48.274Z,99.90
2023-01-05T01:50:19.183Z,99.90
2023-01-05T01:52:50.812Z,99.90
2023-01-05T01:55:19.603Z,99.90
2023-01-05T01:57:49.823Z,99.90
2023-01-05T02:00:19.813Z,99.90
2023-01-05T02:02:54.489Z,99.90
2023-01-05T02:05:28.788Z,99.90
2023-01-05T02:07:56.746Z,99.90
2023-01-05T02:10:36.289Z,99.90
2023-01-05T02:13:19.272Z,99.90
2023-01-05T02:15:52.654Z,99.90
2023-01-05T02:18:31.679Z,99.90
2023-01-05T02:21:16.731Z,99.90
2023-01-05T02:24:08.972Z,99.90
2023-01-05T02:27:21.462Z,99.90
2023-01-05T02:30:14.420Z,99.90
2023-01-05T02:32:52.224Z,99.90
2023-01-05T02:35:31.057Z,99.90
2023-01-05T02:38:06.424Z,99.90
2023-01-05T02:40:40.628Z,99.90
2023-01-05T02:43:10.295Z,99.90
2023-01-05T02:45:38.590Z,99.90
2023-01-05T02:48:08.663Z,99.90
2023-01-05T02:50:41.659Z,99.90
2023-01-05T02:53:18.067Z,99.90
2023-01-05T02:55:51.271Z,99.90
2023-01-05T02:58:26.735Z,99.90
2023-01-05T03:00:57.875Z,99.90
2023-01-05T03:03:34.181Z,99.90
2023-01-05T03:06:07.095Z,99.90
2023-01-05T03:08:39.365Z,99.90
2023-01-05T03:11:27.643Z,99.90
2023-01-05T03:14:00.135Z,99.90
2023-01-05T03:16:31.995Z,99.90
2023-01-05T03:19:22.548Z,99.90
2023-01-05T03:22:10.875Z,99.90
2023-01-05T03:25:01.195Z,99.90
2023-01-05T03:27:49.524Z,99.90
2023-01-05T03:30:35.435Z,99.90
2023-01-05T03:33:30.823Z,99.90
2023-01-05T03:36:01.975Z,99.90
2023-01-05T03:38:32.930Z,99.90
2023-01-05T03:41:05.879Z,99.90
2023-01-05T03:43:35.765Z,99.90
2023-01-05T03:46:12.541Z,99.90
2023-01-05T03:48:40.572Z,99.90
2023-01-05T03:51:10.223Z,99.90
2023-01-05T03:53:40.664Z,99.90
2023-01-05T03:56:08.987Z,99.90
2023-01-05T03:58:37.263Z,99.90
2023-01-05T04:01:05.891Z,99.90
2023-01-05T04:03:33.941Z,99.90
2023-01-05T04:06:05.234Z,99.90
2023-01-05T04:08:36.469Z,99.90
2023-01-05T04:11:15.963Z,99.90
2023-01-05T04:13:48.715Z,99.90
2023-01-05T04:16:17.524Z,99.90
2023-01-05T04:18:45.692Z,99.90
2023-01-05T04:21:14.972Z,99.90
2023-01-05T04:23:45.373Z,99.90
2023-01-05T04:26:14.756Z,99.90
2023-01-05T04:28:43.345Z,99.90
2023-01-05T04:31:12.440Z,99.90
2023-01-05T04:33:40.493Z,99.90
2023-01-05T04:36:09.562Z,99.90
2023-01-05T04:38:37.474Z,99.20
2023-01-05T04:41:08.478Z,99.30
2023-01-05T04:43:36.342Z,99.50
2023-01-05T04:46:04.246Z,99.40
2023-01-05T04:48:32.833Z,99.40
2023-01-05T04:51:01.321Z,98.30
2023-01-05T04:53:35.608Z,99.80
2023-01-05T04:56:06.126Z,99.90
2023-01-05T04:58:41.343Z,99.90
2023-01-05T05:01:09.673Z,99.90
2023-01-05T05:03:39.443Z,99.90
2023-01-05T05:06:11.606Z,99.90
2023-01-05T05:08:39.518Z,99.90
2023-01-05T05:11:10.198Z,99.90
2023-01-05T05:13:41.806Z,99.90
2023-01-05T05:16:10.439Z,99.90
2023-01-05T05:18:39.539Z,99.90
2023-01-05T05:21:11.646Z,99.90
2023-01-05T05:23:40.977Z,99.90
2023-01-05T05:26:08.806Z,99.90
2023-01-05T05:28:37.363Z,99.90
2023-01-05T05:31:06.850Z,99.90
2023-01-05T05:33:34.801Z,99.90
2023-01-05T05:36:02.610Z,99.20
2023-01-05T05:38:30.443Z,99.70
2023-01-05T05:40:58.266Z,99.30
2023-01-05T05:43:26.152Z,99.90
2023-01-05T05:45:54.099Z,99.90
2023-01-05T05:48:23.327Z,99.90
2023-01-05T05:50:51.153Z,99.50
2023-01-05T05:53:19.016Z,99.60
2023-01-05T05:55:50.269Z,98.90
2023-01-05T05:58:18.760Z,99.80
2023-01-05T06:00:46.866Z,99.90
2023-01-05T06:03:15.287Z,99.90
2023-01-05T06:05:45.604Z,99.90
2023-01-05T06:08:13.480Z,99.90
2023-01-05T06:10:41.370Z,99.60
2023-01-05T06:13:10.675Z,99.70
2023-01-05T06:15:38.544Z,99.80
2023-01-05T06:18:06.578Z,99.70
2023-01-05T06:20:34.558Z,99.20
2023-01-05T06:23:03.921Z,99.80
2023-01-05T06:25:31.926Z,99.70
2023-01-05T06:27:59.983Z,99.70
2023-01-05T06:30:28.086Z,99.90
2023-01-05T06:32:56.414Z,99.00
2023-01-05T06:35:24.263Z,99.90
2023-01-05T06:37:52.133Z,99.70
2023-01-05T06:40:21.287Z,99.90
2023-01-05T06:42:49.127Z,99.70
2023-01-05T06:45:17.420Z,98.80
2023-01-05T06:47:45.917Z,99.10
2023-01-05T06:50:13.802Z,99.10
2023-01-05T06:52:41.700Z,99.10
2023-01-05T06:55:11.307Z,98.80
2023-01-05T06:57:40.892Z,98.40
2023-01-05T07:00:11.662Z,98.30
2023-01-05T07:02:39.751Z,98.80
2023-01-05T07:05:08.742Z,98.70
2023-01-05T07:07:37.135Z,97.00
2023-01-05T07:10:06.030Z,97.70
2023-01-05T07:12:33.862Z,97.80
2023-01-05T07:15:03.060Z,97.40
2023-01-05T07:17:30.932Z,96.80
2023-01-05T07:19:58.758Z,98.20
2023-01-05T07:22:28.129Z,97.40
2023-01-05T07:24:56.016Z,98.00
2023-01-05T07:27:23.851Z,98.10
2023-01-05T07:29:51.726Z,98.30
2023-01-05T07:32:21.002Z,98.30
2023-01-05T07:34:55.428Z,98.60
2023-01-05T07:37:24.509Z,97.90
2023-01-05T07:39:52.420Z,98.20
2023-01-05T07:42:20.465Z,98.10
2023-01-05T07:44:49.851Z,98.70
2023-01-05T07:47:17.742Z,97.80
2023-01-05T07:49:47.202Z,98.40
2023-01-05T07:52:15.092Z,98.00
2023-01-05T07:54:42.927Z,98.00
2023-01-05T07:57:10.746Z,98.30
2023-01-05T07:59:38.600Z,98.60
2023-01-05T08:02:06.876Z,98.20
2023-01-05T08:04:34.978Z,98.00
2023-01-05T08:07:09.834Z,98.20
2023-01-05T08:09:55.102Z,98.10
2023-01-05T08:12:23.188Z,97.90
2023-01-05T08:14:51.085Z,98.80
2023-01-05T08:17:18.924Z,98.70
2023-01-05T08:19:46.779Z,97.50
2023-01-05T08:22:16.070Z,97.70
2023-01-05T08:24:43.910Z,97.00
2023-01-05T08:27:11.765Z,97.60
2023-01-05T08:29:39.620Z,98.40
2023-01-05T08:32:08.652Z,98.40
2023-01-05T08:34:36.802Z,97.30
2023-01-05T08:37:04.614Z,97.30
2023-01-05T08:39:35.833Z,98.50
2023-01-05T08:42:03.746Z,98.70
2023-01-05T08:44:31.590Z,98.80
2023-01-05T08:46:59.420Z,98.60
2023-01-05T08:49:27.272Z,98.80
2023-01-05T08:51:55.132Z,97.80
2023-01-05T08:54:22.973Z,98.80
2023-01-05T08:56:52.793Z,98.30
2023-01-05T08:59:20.836Z,98.00
2023-01-05T09:01:49.659Z,98.20
2023-01-05T09:04:17.581Z,98.60
2023-01-05T09:06:45.509Z,98.10
2023-01-05T09:09:13.480Z,98.50
2023-01-05T09:11:41.409Z,98.20
2023-01-05T09:14:14.666Z,97.90
2023-01-05T09:17:05.967Z,97.50
2023-01-05T09:19:30.408Z,97.90
2023-01-05T09:21:58.255Z,98.40
2023-01-05T09:24:26.558Z,98.70
2023-01-05T09:26:54.489Z,97.50
2023-01-05T09:29:25.523Z,98.30
2023-01-05T09:31:53.456Z,97.10
2023-01-05T09:34:21.297Z,98.10
2023-01-05T09:36:49.175Z,98.60
2023-01-05T09:39:17.020Z,98.60
2023-01-05T09:41:47.768Z,98.20
2023-01-05T09:44:27.315Z,97.90
2023-01-05T09:46:56.814Z,97.70
2023-01-05T09:49:26.995Z,97.50
2023-01-05T09:51:59.370Z,97.10
2023-01-05T09:54:29.558Z,98.10
2023-01-05T09:57:15.445Z,97.30
2023-01-05T09:59:47.133Z,98.10
2023-01-05T10:02:21.237Z,97.40
2023-01-05T10:04:50.145Z,97.80
2023-01-05T10:07:31.312Z,97.50
2023-01-05T10:10:06.761Z,96.80
2023-01-05T10:13:02.136Z,97.10
2023-01-05T10:15:41.576Z,96.80
2023-01-05T10:18:15.063Z,97.50
2023-01-05T10:20:55.496Z,97.00
2023-01-05T10:24:04.410Z,96.80
2023-01-05T10:27:14.254Z,97.10
2023-01-05T10:29:38.524Z,96.90
2023-01-05T10:32:18.461Z,96.90
2023-01-05T10:34:58.520Z,96.00
2023-01-05T10:37:57.881Z,96.10
2023-01-05T10:40:35.717Z,97.00
2023-01-05T10:43:20.067Z,96.80
2023-01-05T10:46:19.767Z,96.90
2023-01-05T10:48:37.673Z,96.80
2023-01-05T10:51:06.986Z,96.70
2023-01-05T10:53:36.795Z,96.90
2023-01-05T10:56:07.793Z,96.10
2023-01-05T10:58:38.319Z,96.50
2023-01-05T11:01:15.564Z,96.90
2023-01-05T11:04:25.153Z,95.90
2023-01-05T11:06:38.312Z,96.20
2023-01-05T11:09:16.307Z,97.60
2023-01-05T11:11:55.644Z,97.70
2023-01-05T11:14:23.772Z,96.90
2023-01-05T11:16:53.991Z,96.50
2023-01-05T11:19:30.049Z,96.60
2023-01-05T11:22:01.870Z,96.20
2023-01-05T11:24:32.898Z,96.20
2023-01-05T11:27:03.083Z,96.20
2023-01-05T11:29:31.352Z,96.40
2023-01-05T11:32:01.503Z,96.60
2023-01-05T11:34:37.196Z,96.10
2023-01-05T11:37:08.358Z,97.40
2023-01-05T11:39:42.007Z,96.40
2023-01-05T11:42:21.497Z,97.10
2023-01-05T11:44:54.973Z,96.40
2023-01-05T11:47:27.468Z,97.60
2023-01-05T11:50:08.750Z,96.90
2023-01-05T11:52:39.343Z,97.10
2023-01-05T11:55:33.798Z,98.30
2023-01-05T11:58:21.129Z,98.50
2023-01-05T12:01:40.223Z,98.30
2023-01-05T12:04:19.072Z,98.50
2023-01-05T12:07:13.547Z,97.40
2023-01-05T12:09:46.131Z,96.80
2023-01-05T12:12:30.845Z,96.60
2023-01-05T12:15:25.999Z,96.30
2023-01-05T12:18:05.424Z,96.00
2023-01-05T12:20:49.003Z,96.20
2023-01-05T12:23:41.116Z,96.00
2023-01-05T12:26:19.889Z,96.20
2023-01-05T12:35:54.453Z,96.40
2023-01-05T12:38:36.584Z,96.00
2023-01-05T12:42:00.916Z,95.60
2023-01-05T12:44:43.120Z,96.60
2023-01-05T12:47:34.668Z,95.90
2023-01-05T12:50:12.948Z,95.50
2023-01-05T12:52:45.566Z,96.20
2023-01-05T12:55:21.083Z,95.70
2023-01-05T12:57:54.112Z,95.80
2023-01-05T13:00:23.106Z,95.80
2023-01-05T13:02:56.184Z,95.50
2023-01-05T13:05:29.056Z,95.90
2023-01-05T13:08:00.636Z,96.10
2023-01-05T13:10:38.518Z,96.10
2023-01-05T13:13:13.499Z,95.40
2023-01-05T13:15:47.078Z,96.00
2023-01-05T13:18:18.596Z,95.90
2023-01-05T13:20:52.101Z,95.70
2023-01-05T13:23:24.274Z,95.50
2023-01-05T13:25:58.585Z,95.30
2023-01-05T13:28:29.640Z,95.40
2023-01-05T13:31:27.541Z,95.50
2023-01-05T13:34:14.060Z,95.50
2023-01-05T13:37:05.112Z,95.60
2023-01-05T13:39:57.256Z,96.20
2023-01-05T13:42:37.638Z,95.40
2023-01-05T13:45:26.284Z,95.60
2023-01-05T13:48:13.149Z,95.60
2023-01-05T13:51:01.695Z,95.70
2023-01-05T13:53:30.936Z,95.50
2023-01-05T13:56:01.876Z,95.90
2023-01-05T13:58:41.693Z,95.80
2023-01-05T14:01:11.939Z,95.20
2023-01-05T14:03:41.675Z,95.60
2023-01-05T14:06:18.657Z,95.40
2023-01-05T14:08:52.645Z,95.10
2023-01-05T14:11:23.148Z,95.70
2023-01-05T14:13:55.724Z,95.20
2023-01-05T14:16:55.092Z,95.60
2023-01-05T14:19:47.093Z,95.60
2023-01-05T14:22:42.359Z,95.60
2023-01-05T14:25:48.329Z,95.40
2023-01-05T14:28:44.524Z,95.10
2023-01-05T14:31:38.556Z,95.50
2023-01-05T14:34:09.507Z,95.40
2023-01-05T14:36:39.832Z,94.60
2023-01-05T14:39:22.117Z,95.20
2023-01-05T14:41:59.488Z,95.10
2023-01-05T14:44:31.719Z,95.20
2023-01-05T14:47:01.504Z,95.20
2023-01-05T14:49:34.730Z,95.10
2023-01-05T14:52:05.180Z,95.30
2023-01-05T14:54:56.102Z,95.20
2023-01-05T14:57:49.035Z,95.30
2023-01-05T15:00:20.980Z,94.70
2023-01-05T15:03:01.663Z,95.00
2023-01-05T15:05:30.751Z,94.90
2023-01-05T15:08:12.212Z,95.00
2023-01-05T15:11:01.647Z,94.90
2023-01-05T15:14:20.433Z,94.90
2023-01-05T15:17:07.372Z,94.90
2023-01-05T15:19:54.257Z,94.50
2023-01-05T15:22:41.127Z,95.10
2023-01-05T15:25:30.015Z,95.80
2023-01-05T15:28:29.057Z,95.50
2023-01-05T15:31:20.666Z,95.40
2023-01-05T15:33:55.190Z,95.50
2023-01-05T15:36:29.198Z,95.40
2023-01-05T15:38:57.587Z,95.30
2023-01-05T15:41:27.848Z,95.30
2023-01-05T15:43:57.028Z,95.70
2023-01-05T15:46:35.284Z,95.40
2023-01-05T15:49:03.152Z,95.30
2023-01-05T15:51:34.063Z,95.30
2023-01-05T15:54:04.544Z,95.50
2023-01-05T15:56:34.416Z,95.50
2023-01-05T15:59:04.512Z,95.70
2023-01-05T16:01:32.336Z,95.70
2023-01-05T16:04:09.299Z,95.90
2023-01-05T16:06:40.753Z,95.60
2023-01-05T16:09:11.627Z,96.10
2023-01-05T16:11:42.811Z,96.00
2023-01-05T16:14:15.042Z,96.00
2023-01-05T16:16:54.428Z,95.80
2023-01-05T16:19:27.458Z,95.90
2023-01-05T16:22:01.095Z,96.10
2023-01-05T16:24:34.000Z,96.00
2023-01-05T16:27:04.683Z,96.20
2023-01-05T16:29:38.866Z,96.10
2023-01-05T16:32:22.018Z,96.00
2023-01-05T16:34:50.168Z,95.90
2023-01-05T16:37:19.893Z,95.80
2023-01-05T16:39:47.749Z,95.80
2023-01-05T16:42:40.012Z,95.80
2023-01-05T16:45:10.537Z,95.70
2023-01-05T16:47:40.130Z,95.80
2023-01-05T16:51:01.161Z,96.10
2023-01-05T16:53:30.419Z,95.90
2023-01-05T16:56:00.773Z,96.10
2023-01-05T16:58:38.199Z,96.20
2023-01-05T17:01:37.080Z,95.90
2023-01-05T17:04:11.831Z,95.80
2023-01-05T17:06:40.068Z,95.90
2023-01-05T17:09:17.002Z,95.90
2023-01-05T17:11:44.873Z,95.80
2023-01-05T17:14:14.337Z,96.00
2023-01-05T17:16:42.181Z,96.10
2023-01-05T17:19:13.702Z,96.20
2023-01-05T17:21:43.261Z,96.00
2023-01-05T17:24:18.322Z,95.90
2023-01-05T17:26:46.222Z,95.70
2023-01-05T17:29:19.953Z,95.90
2023-01-05T17:31:47.785Z,96.10
2023-01-05T17:34:15.702Z,96.00
2023-01-05T17:36:43.835Z,96.00
2023-01-05T17:39:15.699Z,96.00
2023-01-05T17:41:43.566Z,95.90
2023-01-05T17:44:11.831Z,96.00
2023-01-05T17:46:42.083Z,96.20
2023-01-05T17:49:14.687Z,95.90
2023-01-05T17:51:42.528Z,95.80
2023-01-05T17:54:10.540Z,96.00
2023-01-05T17:56:39.890Z,96.30
2023-01-05T17:59:08.261Z,96.40
2023-01-05T18:01:36.295Z,96.40
2023-01-05T18:04:04.512Z,96.20
2023-01-05T18:06:32.346Z,96.50
2023-01-05T18:09:00.357Z,96.60
2023-01-05T18:11:28.201Z,96.40
2023-01-05T18:13:57.405Z,96.50
2023-01-05T18:16:26.404Z,96.30
2023-01-05T18:18:55.110Z,96.30
2023-01-05T18:21:22.933Z,96.10
2023-01-05T18:23:50.752Z,96.00
2023-01-05T18:26:18.567Z,95.80
2023-01-05T18:28:46.398Z,96.10
2023-01-05T18:31:17.183Z,95.90
2023-01-05T18:33:45.061Z,96.00
2023-01-05T18:36:14.948Z,96.20
2023-01-05T18:38:43.634Z,96.40
2023-01-05T18:41:11.938Z,96.10
2023-01-05T18:43:40.036Z,96.40
2023-01-05T18:46:07.950Z,96.30
2023-01-05T18:48:37.151Z,96.40
2023-01-05T18:51:07.856Z,97.00
2023-01-05T18:53:38.250Z,96.70
2023-01-05T18:56:07.533Z,97.10
2023-01-05T18:58:35.591Z,96.90
2023-01-05T19:01:09.035Z,96.40
2023-01-05T19:03:38.557Z,96.40
2023-01-05T19:06:07.695Z,96.40
2023-01-05T19:08:35.752Z,96.00
2023-01-05T19:11:11.675Z,96.20
2023-01-05T19:13:40.047Z,96.20
2023-01-05T19:16:09.174Z,96.50
2023-01-05T19:18:38.598Z,96.50
2023-01-05T19:21:06.713Z,96.70
2023-01-05T19:23:34.665Z,97.20
2023-01-05T19:26:03.763Z,96.90
2023-01-05T19:28:32.520Z,96.90
2023-01-05T19:31:07.873Z,97.10
2023-01-05T19:33:36.186Z,97.00
2023-01-05T19:36:07.543Z,97.30
2023-01-05T19:38:36.205Z,97.50
2023-01-05T19:41:05.852Z,97.40
2023-01-05T19:43:34.539Z,97.60
2023-01-05T19:46:04.521Z,98.00
2023-01-05T19:48:34.512Z,98.10
2023-01-05T19:51:03.811Z,98.20
2023-01-05T19:53:33.975Z,98.40
2023-01-05T19:56:04.385Z,98.30
2023-01-05T19:58:32.335Z,99.10
2023-01-05T20:01:06.857Z,98.70
2023-01-05T20:03:34.779Z,98.70
2023-01-05T20:06:06.892Z,99.20
2023-01-05T20:08:37.196Z,98.90
2023-01-05T20:11:08.373Z,98.70
2023-01-05T20:13:36.516Z,98.40
2023-01-05T20:16:06.264Z,98.50
2023-01-05T20:18:34.408Z,99.20
2023-01-05T20:21:03.378Z,99.30
2023-01-05T20:23:37.812Z,99.20
2023-01-05T20:26:08.336Z,98.80
2023-01-05T20:28:36.555Z,99.10
2023-01-05T20:31:05.423Z,98.50
2023-01-05T20:33:33.340Z,99.70
2023-01-05T20:36:01.171Z,98.70
2023-01-05T20:38:28.969Z,98.60
2023-01-05T20:40:58.123Z,98.20
2023-01-05T20:43:25.956Z,98.20
2023-01-05T20:45:53.856Z,98.10
2023-01-05T20:48:21.734Z,97.80
2023-01-05T20:50:49.581Z,97.70
2023-01-05T20:53:17.372Z,97.40
2023-01-05T20:55:50.679Z,97.40
2023-01-05T20:58:19.877Z,97.40
2023-01-05T21:01:10.269Z,97.70
2023-01-05T21:03:37.691Z,97.60
2023-01-05T21:06:06.333Z,97.60
2023-01-05T21:08:34.528Z,97.60
2023-01-05T21:11:03.772Z,97.30
2023-01-05T21:13:33.449Z,97.30
2023-01-05T21:16:04.272Z,96.90
2023-01-05T21:18:32.922Z,97.70
2023-01-05T21:21:01.056Z,98.30
2023-01-05T21:23:28.893Z,98.50
2023-01-05T21:26:05.569Z,98.80
2023-01-05T21:28:37.051Z,99.00
2023-01-05T21:31:06.970Z,99.00
2023-01-05T21:33:36.117Z,98.80
2023-01-05T21:36:04.762Z,99.10
2023-01-05T21:39:02.585Z,99.30
2023-01-05T21:41:40.816Z,99.10
2023-01-05T21:44:11.332Z,99.20
2023-01-05T21:46:39.448Z,99.20
2023-01-05T21:49:08.064Z,99.30
2023-01-05T21:51:53.752Z,98.90
2023-01-05T21:54:40.717Z,99.90
2023-01-05T21:57:08.563Z,99.80
2023-01-05T21:59:38.015Z,99.90
2023-01-05T22:02:05.938Z,99.90
2023-01-05T22:04:33.877Z,99.90
2023-01-05T22:07:01.750Z,99.90
2023-01-05T22:09:29.547Z,99.80
2023-01-05T22:11:57.408Z,99.90
2023-01-05T22:14:25.254Z,99.90
2023-01-05T22:16:54.455Z,99.90
2023-01-05T22:19:22.274Z,99.90
2023-01-05T22:21:50.102Z,99.90
2023-01-05T22:24:17.944Z,99.90
2023-01-05T22:26:45.909Z,99.80
2023-01-05T22:29:13.717Z,99.90
2023-01-05T22:31:41.753Z,99.90
2023-01-05T22:34:11.060Z,99.90
2023-01-05T22:36:38.900Z,99.90
2023-01-05T22:39:06.746Z,99.90
2023-01-05T22:41:34.633Z,99.90
2023-01-05T22:44:04.171Z,99.90
2023-01-05T22:46:32.523Z,99.90
2023-01-05T22:49:00.814Z,99.90
2023-01-05T22:51:32.151Z,99.90
2023-01-05T22:54:00.811Z,99.90
2023-01-05T22:56:31.710Z,99.90
2023-01-05T22:59:00.543Z,99.90
2023-01-05T23:01:30.611Z,99.90
2023-01-05T23:04:00.179Z,99.90
2023-01-05T23:06:29.872Z,99.90
2023-01-05T23:08:58.208Z,99.90
2023-01-05T23:11:28.080Z,99.90
2023-01-05T23:13:57.729Z,99.90
2023-01-05T23:16:26.353Z,99.90
2023-01-05T23:18:54.543Z,99.90
2023-01-05T23:21:24.380Z,99.90
2023-01-05T23:23:54.982Z,99.90
2023-01-05T23:26:23.613Z,99.90
2023-01-05T23:28:51.572Z,99.90
2023-01-05T23:31:20.000Z,99.90
2023-01-05T23:33:49.085Z,99.90
2023-01-05T23:36:19.313Z,99.90
2023-01-05T23:38:47.886Z,99.90
2023-01-05T23:41:18.329Z,99.60
2023-01-05T23:43:47.130Z,99.90
2023-01-05T23:46:17.407Z,99.90
2023-01-05T23:48:45.421Z,99.90
2023-01-05T23:51:16.288Z,99.90
2023-01-05T23:53:46.083Z,99.90
2023-01-05T23:56:19.173Z,99.90
2023-01-05T23:58:47.575Z,99.90
